createdAt,value
2022-09-07T00:01:22.655Z,11.40
2022-09-07T00:04:27.367Z,11.43
2022-09-07T00:07:32.425Z,11.43
2022-09-07T00:10:37.393Z,11.57
2022-09-07T00:13:43.593Z,11.75
2022-09-07T00:16:48.470Z,11.79
2022-09-07T00:19:53.665Z,11.92
2022-09-07T00:22:58.504Z,11.77
2022-09-07T00:26:07.958Z,11.66
2022-09-07T00:29:12.594Z,11.97
2022-09-07T00:32:17.457Z,11.89
2022-09-07T00:35:22.066Z,12.10
2022-09-07T00:38:27.020Z,12.43
2022-09-07T00:41:32.218Z,12.44
2022-09-07T00:44:45.959Z,12.54
2022-09-07T00:48:24.879Z,12.56
2022-09-07T00:51:49.971Z,12.69
2022-09-07T00:55:00.190Z,12.90
2022-09-07T00:58:08.738Z,12.68
2022-09-07T01:01:13.821Z,13.06
2022-09-07T01:04:19.532Z,13.15
2022-09-07T01:07:24.653Z,13.29
2022-09-07T01:10:34.445Z,13.45
2022-09-07T01:13:41.916Z,13.34
2022-09-07T01:16:55.263Z,13.42
2022-09-07T06:44:39.690Z,18.10
2022-09-07T06:48:44.756Z,18.23
2022-09-07T07:01:20.226Z,18.40
2022-09-07T07:08:58.064Z,18.20
2022-09-07T09:06:27.201Z,17.04
2022-09-07T10:40:33.051Z,16.24
2022-09-07T10:43:51.025Z,15.98
2022-09-07T10:47:10.134Z,16.16
2022-09-07T10:50:49.865Z,16.27
2022-09-07T10:54:36.249Z,16.01
2022-09-07T10:57:59.702Z,15.32
2022-09-07T11:01:55.485Z,16.26
2022-09-07T11:05:36.081Z,16.17
2022-09-07T12:27:56.675Z,15.27
2022-09-07T12:31:57.681Z,14.87
2022-09-07T12:35:08.521Z,15.16
2022-09-07T12:38:22.012Z,15.59
2022-09-07T12:41:47.400Z,15.40
2022-09-07T12:45:49.200Z,15.94
2022-09-07T12:49:09.185Z,15.41
2022-09-07T12:52:35.476Z,15.88
2022-09-07T12:59:56.017Z,15.59
2022-09-07T13:03:49.504Z,15.88
2022-09-07T13:07:09.872Z,15.32
2022-09-07T13:10:38.137Z,15.75
2022-09-07T13:19:52.107Z,15.84
2022-09-07T13:22:58.602Z,15.43
2022-09-07T13:26:05.413Z,15.09
2022-09-07T13:29:17.994Z,15.62
2022-09-07T13:36:02.275Z,15.34
2022-09-07T13:39:10.500Z,14.92
2022-09-07T13:42:33.371Z,15.07
2022-09-07T13:45:56.463Z,14.99
2022-09-07T13:49:32.077Z,14.93
2022-09-07T13:53:01.927Z,14.92
2022-09-07T13:56:47.412Z,15.16
2022-09-07T13:59:53.455Z,14.62
2022-09-07T14:03:07.516Z,14.70
2022-09-07T14:06:30.802Z,14.93
2022-09-07T14:09:36.275Z,14.44
2022-09-07T14:12:54.477Z,14.69
2022-09-07T14:15:59.330Z,14.33
2022-09-07T14:19:12.205Z,14.55
2022-09-07T14:22:21.420Z,14.62
2022-09-07T14:25:29.530Z,14.32
2022-09-07T14:28:39.116Z,13.88
2022-09-07T14:31:45.731Z,14.66
2022-09-07T14:34:53.459Z,14.56
2022-09-07T14:39:03.928Z,14.18
2022-09-07T14:41:52.326Z,13.85
2022-09-07T14:45:38.239Z,13.38
2022-09-07T14:48:50.187Z,14.03
2022-09-07T14:52:05.291Z,13.64
2022-09-07T14:55:32.270Z,13.78
2022-09-07T14:58:37.219Z,12.72
2022-09-07T15:02:12.827Z,13.27
2022-09-07T15:05:29.686Z,13.45
2022-09-07T15:08:44.804Z,12.34
2022-09-07T15:12:04.996Z,12.83
2022-09-07T15:15:27.772Z,12.84
2022-09-07T15:18:47.803Z,13.38
2022-09-07T15:21:52.726Z,12.90
2022-09-07T15:24:57.756Z,13.50
2022-09-07T15:28:02.856Z,12.49
2022-09-07T15:34:40.529Z,12.97
2022-09-07T15:38:02.935Z,12.84
2022-09-07T15:41:27.796Z,13.17
2022-09-07T15:44:47.126Z,13.20
2022-09-07T15:47:55.295Z,13.08
2022-09-07T16:11:35.185Z,13.24
2022-09-07T16:15:18.747Z,12.51
2022-09-07T16:18:31.210Z,12.95
2022-09-07T16:21:48.510Z,11.99
2022-09-07T16:25:02.434Z,12.94
2022-09-07T16:28:31.874Z,12.39
2022-09-07T16:35:12.585Z,12.93
2022-09-07T16:38:44.448Z,12.96
2022-09-07T16:42:10.298Z,12.43
2022-09-07T16:52:46.016Z,12.86
2022-09-07T16:56:09.776Z,12.63
2022-09-07T16:59:30.759Z,12.32
2022-09-07T17:02:37.477Z,12.42
2022-09-07T17:05:44.357Z,12.43
2022-09-07T17:08:54.940Z,12.45
2022-09-07T17:12:01.628Z,12.20
2022-09-07T17:15:09.985Z,12.00
2022-09-07T17:18:17.922Z,12.17
2022-09-07T17:21:27.292Z,12.31
2022-09-07T17:24:35.026Z,12.62
2022-09-07T17:28:10.875Z,12.39
2022-09-07T17:35:38.083Z,12.54
2022-09-07T17:45:54.553Z,11.32
2022-09-07T17:49:02.371Z,11.80
2022-09-07T17:52:07.144Z,11.83
2022-09-07T17:55:12.013Z,11.73
2022-09-07T17:58:17.181Z,11.58
2022-09-07T18:01:25.624Z,11.47
2022-09-07T18:04:30.506Z,11.94
2022-09-07T18:07:35.997Z,11.74
2022-09-07T18:14:16.187Z,11.53
2022-09-07T18:22:26.717Z,11.57
2022-09-07T18:25:44.987Z,11.79
2022-09-07T18:29:08.404Z,11.70
2022-09-07T18:32:17.932Z,11.21
2022-09-07T18:35:22.480Z,11.61
2022-09-07T18:38:28.425Z,11.47
2022-09-07T18:41:34.099Z,11.56
2022-09-07T18:48:03.947Z,11.67
2022-09-07T18:51:09.937Z,11.60
2022-09-07T18:54:14.551Z,11.49
2022-09-07T18:57:19.876Z,11.22
2022-09-07T19:00:25.122Z,10.88
2022-09-07T19:03:29.902Z,11.35
2022-09-07T19:09:45.024Z,11.48
2022-09-07T19:12:49.577Z,11.78
2022-09-07T19:15:54.589Z,11.62
2022-09-07T19:19:04.465Z,10.96
2022-09-07T19:22:09.203Z,10.90
2022-09-07T19:25:13.987Z,10.95
2022-09-07T19:28:20.078Z,11.63
2022-09-07T19:31:25.740Z,11.66
2022-09-07T19:34:31.886Z,11.58
2022-09-07T19:37:36.507Z,11.32
2022-09-07T19:40:41.548Z,11.54
2022-09-07T19:43:47.574Z,11.36
2022-09-07T19:46:52.537Z,11.19
2022-09-07T19:49:57.193Z,11.24
2022-09-07T19:53:01.963Z,10.97
2022-09-07T19:56:13.823Z,11.24
2022-09-07T19:59:20.620Z,11.08
2022-09-07T20:02:25.554Z,11.36
2022-09-07T20:05:32.086Z,11.36
2022-09-07T20:08:37.897Z,11.48
2022-09-07T20:11:46.253Z,11.16
2022-09-07T20:14:51.628Z,11.31
2022-09-07T20:17:56.518Z,11.38
2022-09-07T20:21:05.923Z,11.53
2022-09-07T20:24:13.443Z,11.70
2022-09-07T20:27:17.981Z,11.53
2022-09-07T20:30:25.132Z,11.46
2022-09-07T20:33:33.244Z,11.69
2022-09-07T20:36:38.001Z,11.64
2022-09-07T20:39:42.559Z,11.54
2022-09-07T20:42:46.945Z,11.23
2022-09-07T20:45:52.132Z,11.24
2022-09-07T20:48:57.107Z,11.23
2022-09-07T20:52:01.819Z,11.45
2022-09-07T20:55:07.173Z,11.47
2022-09-07T20:58:12.036Z,11.18
2022-09-07T21:01:19.247Z,10.96
2022-09-07T21:04:27.200Z,11.14
2022-09-07T21:07:31.740Z,11.20
2022-09-07T21:10:40.731Z,11.80
2022-09-07T21:13:45.348Z,12.04
2022-09-07T21:16:49.955Z,12.26
2022-09-07T21:19:55.037Z,12.00
2022-09-07T21:23:00.449Z,12.22
2022-09-07T21:26:06.742Z,12.96
2022-09-07T21:29:17.649Z,13.08
2022-09-07T21:32:22.363Z,12.93
2022-09-07T21:35:27.083Z,13.48
2022-09-07T21:38:31.933Z,14.11
2022-09-07T21:41:36.786Z,14.21
2022-09-07T21:44:44.555Z,15.40
2022-09-07T21:47:49.890Z,16.59
2022-09-07T21:51:00.031Z,18.29
2022-09-07T21:54:06.860Z,18.87
2022-09-07T21:57:20.429Z,20.28
2022-09-07T22:02:17.942Z,20.76
2022-09-07T22:04:59.377Z,20.66
2022-09-07T22:08:07.548Z,20.41
2022-09-07T22:11:21.084Z,20.94
2022-09-07T22:14:25.933Z,20.80
2022-09-07T22:17:30.303Z,19.60
2022-09-07T22:20:35.883Z,18.59
2022-09-07T22:23:56.989Z,17.85
2022-09-07T22:27:01.563Z,17.72
2022-09-07T22:30:07.858Z,17.26
2022-09-07T22:33:12.522Z,17.16
2022-09-07T22:36:20.049Z,16.77
2022-09-07T22:39:24.570Z,16.81
2022-09-07T22:42:29.071Z,16.17
2022-09-07T22:45:33.862Z,15.93
2022-09-07T22:48:39.617Z,16.30
2022-09-07T22:51:45.233Z,16.54
2022-09-07T22:54:49.992Z,16.13
2022-09-07T22:57:54.879Z,16.14
2022-09-07T23:01:00.492Z,16.03
2022-09-07T23:04:05.510Z,16.26
2022-09-07T23:07:10.416Z,16.12
2022-09-07T23:10:14.917Z,16.27
2022-09-07T23:13:19.622Z,16.45
2022-09-07T23:16:24.848Z,16.49
2022-09-07T23:19:29.402Z,16.13
2022-09-07T23:22:34.136Z,16.25
2022-09-07T23:25:40.128Z,16.70
2022-09-07T23:28:44.648Z,16.96
2022-09-07T23:31:49.403Z,17.29
2022-09-07T23:34:54.092Z,17.38
2022-09-07T23:37:58.622Z,17.39
2022-09-07T23:41:03.347Z,17.45
2022-09-07T23:44:07.994Z,17.15
2022-09-07T23:47:12.975Z,17.02
2022-09-07T23:50:17.764Z,16.90
2022-09-07T23:53:23.301Z,17.14
2022-09-07T23:56:27.364Z,17.10
2022-09-07T23:59:34.726Z,17.16
